createdAt,value
2018-11-13T00:01:20.766Z,12.20
2018-11-13T00:09:42.154Z,10.40
2018-11-13T00:18:03.629Z,11.60
2018-11-13T00:26:25.044Z,11.40
2018-11-13T00:34:46.446Z,10.40
2018-11-13T00:43:07.801Z,10.17
2018-11-13T00:51:29.229Z,11.33
2018-11-13T00:59:50.672Z,11.77
2018-11-13T01:08:12.066Z,12.40
2018-11-13T01:16:33.513Z,11.43
2018-11-13T01:24:54.997Z,11.97
2018-11-13T01:33:16.424Z,11.77
2018-11-13T01:41:37.900Z,10.63
2018-11-13T01:49:59.197Z,11.17
2018-11-13T01:58:20.559Z,11.50
2018-11-13T02:06:41.930Z,11.27
2018-11-13T02:15:03.380Z,10.53
2018-11-13T02:23:24.745Z,11.40
2018-11-13T02:31:46.106Z,9.77
2018-11-13T02:40:07.573Z,10.73
2018-11-13T02:48:28.970Z,10.57
2018-11-13T02:56:50.330Z,9.43
2018-11-13T03:05:13.814Z,9.10
2018-11-13T03:13:35.217Z,9.07
2018-11-13T03:21:56.569Z,9.27
2018-11-13T03:30:20.315Z,8.77
2018-11-13T03:38:41.701Z,9.77
2018-11-13T03:47:03.112Z,10.37
2018-11-13T03:55:24.494Z,9.73
2018-11-13T04:03:45.850Z,10.20
2018-11-13T04:12:07.226Z,9.90
2018-11-13T04:20:28.575Z,10.03
2018-11-13T04:28:49.942Z,9.27
2018-11-13T04:37:11.302Z,8.80
2018-11-13T04:45:32.649Z,8.10
2018-11-13T04:53:54.051Z,8.37
2018-11-13T05:02:15.424Z,8.27
2018-11-13T05:10:36.790Z,7.17
2018-11-13T05:18:58.157Z,4.30
2018-11-13T05:27:19.534Z,3.83
2018-11-13T05:35:40.904Z,3.53
2018-11-13T05:44:02.289Z,4.17
2018-11-13T05:52:23.650Z,5.07
2018-11-13T06:00:45.055Z,3.53
2018-11-13T06:09:06.418Z,3.80
2018-11-13T06:17:27.787Z,3.80
2018-11-13T06:25:49.174Z,5.10
2018-11-13T06:34:10.558Z,4.40
2018-11-13T06:42:31.923Z,4.30
2018-11-13T06:50:53.358Z,4.00
2018-11-13T06:59:14.785Z,4.50
2018-11-13T07:07:36.249Z,4.70
2018-11-13T07:15:57.655Z,4.60
2018-11-13T07:24:19.018Z,4.30
2018-11-13T07:32:40.743Z,4.20
2018-11-13T07:41:02.275Z,3.60
2018-11-13T07:49:23.646Z,3.83
2018-11-13T07:57:45.314Z,3.47
2018-11-13T08:06:06.811Z,2.90
2018-11-13T08:14:28.121Z,4.20
2018-11-13T08:22:49.570Z,5.90
2018-11-13T08:31:11.058Z,4.83
2018-11-13T08:39:32.694Z,5.57
2018-11-13T08:47:54.144Z,5.07
2018-11-13T08:56:15.506Z,5.60
2018-11-13T09:04:36.880Z,5.37
2018-11-13T09:12:58.311Z,6.53
2018-11-13T09:21:19.669Z,6.10
2018-11-13T09:29:41.173Z,4.60
2018-11-13T09:38:02.520Z,3.23
2018-11-13T09:46:23.994Z,2.80
2018-11-13T09:54:45.334Z,2.90
2018-11-13T10:03:07.352Z,2.80
2018-11-13T10:11:28.130Z,2.60
2018-11-13T10:19:49.563Z,2.10
2018-11-13T10:28:10.981Z,1.60
2018-11-13T10:36:32.289Z,1.60
2018-11-13T10:44:53.709Z,1.40
2018-11-13T10:53:15.083Z,1.60
2018-11-13T11:01:42.102Z,3.40
2018-11-13T11:10:03.543Z,8.23
2018-11-13T11:18:24.901Z,5.30
2018-11-13T11:26:46.293Z,2.53
2018-11-13T11:35:07.693Z,2.10
2018-11-13T11:52:21.129Z,1.80
2018-11-13T12:00:42.623Z,2.20
2018-11-13T12:09:04.978Z,2.37
2018-11-13T12:17:26.345Z,1.80
2018-11-13T12:25:47.742Z,1.80
2018-11-13T12:34:09.137Z,2.10
2018-11-13T12:42:30.542Z,1.80
2018-11-13T12:51:03.893Z,1.60
2018-11-13T12:59:25.326Z,2.10
2018-11-13T13:07:46.740Z,2.43
2018-11-13T13:16:08.067Z,2.67
2018-11-13T13:24:29.464Z,2.30
2018-11-13T13:32:51.157Z,2.10
2018-11-13T13:41:12.486Z,1.90
2018-11-13T13:49:33.858Z,1.83
2018-11-13T13:57:55.257Z,1.80
2018-11-13T14:06:16.646Z,1.70
2018-11-13T14:14:38.058Z,2.10
2018-11-13T14:22:59.405Z,1.80
2018-11-13T14:31:20.774Z,2.03
2018-11-13T14:39:42.157Z,2.10
2018-11-13T14:48:03.617Z,1.70
2018-11-13T14:56:25.003Z,2.00
2018-11-13T15:04:46.395Z,2.00
2018-11-13T15:13:08.509Z,2.40
2018-11-13T15:21:29.874Z,2.20
2018-11-13T15:29:51.636Z,2.00
2018-11-13T15:38:12.998Z,2.77
2018-11-13T15:46:34.415Z,3.10
2018-11-13T15:54:55.754Z,3.60
2018-11-13T16:03:17.123Z,3.58
2018-11-13T16:11:38.611Z,4.47
2018-11-13T16:19:59.978Z,3.53
2018-11-13T16:28:21.405Z,4.20
2018-11-13T16:36:42.782Z,5.47
2018-11-13T16:45:04.130Z,11.00
2018-11-13T16:53:25.488Z,10.33
2018-11-13T17:01:46.864Z,6.87
2018-11-13T17:10:08.284Z,5.90
2018-11-13T17:18:29.733Z,5.90
2018-11-13T17:26:51.113Z,4.63
2018-11-13T17:35:13.698Z,5.13
2018-11-13T17:43:35.143Z,6.17
2018-11-13T17:51:56.519Z,7.03
2018-11-13T18:00:20.174Z,7.67
2018-11-13T18:08:41.534Z,7.33
2018-11-13T18:17:02.894Z,7.10
2018-11-13T18:25:24.398Z,10.30
2018-11-13T18:33:45.778Z,6.93
2018-11-13T18:42:07.204Z,8.17
2018-11-13T18:50:29.802Z,7.80
2018-11-13T18:58:51.197Z,8.23
2018-11-13T19:07:12.554Z,8.27
2018-11-13T19:15:34.001Z,9.50
2018-11-13T19:23:55.392Z,9.10
2018-11-13T19:32:16.722Z,8.70
2018-11-13T19:40:38.158Z,8.50
2018-11-13T19:48:59.513Z,7.53
2018-11-13T19:57:20.930Z,11.30
2018-11-13T20:05:42.368Z,12.37
2018-11-13T20:14:03.725Z,14.43
2018-11-13T20:22:25.082Z,11.57
2018-11-13T20:30:46.537Z,16.50
2018-11-13T20:39:07.863Z,17.23
2018-11-13T20:47:29.234Z,15.47
2018-11-13T20:55:50.702Z,14.67
2018-11-13T21:04:12.162Z,13.00
2018-11-13T21:12:33.616Z,12.67
2018-11-13T21:20:55.011Z,12.43
2018-11-13T21:29:16.371Z,14.93
2018-11-13T21:37:38.124Z,12.50
2018-11-13T21:45:59.605Z,13.10
2018-11-13T21:54:20.993Z,17.90
2018-11-13T22:02:42.469Z,14.17
2018-11-13T22:11:03.941Z,14.57
2018-11-13T22:19:25.428Z,14.50
2018-11-13T22:27:48.206Z,14.07
2018-11-13T22:36:09.205Z,13.73
2018-11-13T22:44:30.550Z,15.17
2018-11-13T22:52:52.357Z,14.30
2018-11-13T23:01:13.848Z,13.83
2018-11-13T23:09:36.083Z,14.90
2018-11-13T23:17:57.513Z,14.63
2018-11-13T23:26:18.866Z,15.13
2018-11-13T23:34:40.233Z,13.90
2018-11-13T23:43:01.595Z,13.43
2018-11-13T23:51:23.036Z,14.27
2018-11-13T23:59:44.386Z,14.33
